sensor_id;sensor_type;location;lat;lon;timestamp;P1;durP1;ratioP1;P2;durP2;ratioP2
59854;SDS011;45732;52.850;6.896;2022-11-22T00:00:37;23.60;;;16.08;;
59854;SDS011;45732;52.850;6.896;2022-11-22T00:03:04;21.38;;;15.40;;
59854;SDS011;45732;52.850;6.896;2022-11-22T00:05:29;22.13;;;15.38;;
59854;SDS011;45732;52.850;6.896;2022-11-22T00:07:55;23.23;;;15.80;;
59854;SDS011;45732;52.850;6.896;2022-11-22T00:10:21;22.92;;;16.30;;
59854;SDS011;45732;52.850;6.896;2022-11-22T00:12:47;22.58;;;15.88;;
59854;SDS011;45732;52.850;6.896;2022-11-22T00:15:13;22.02;;;15.70;;
59854;SDS011;45732;52.850;6.896;2022-11-22T00:17:39;23.20;;;16.10;;
59854;SDS011;45732;52.850;6.896;2022-11-22T00:20:05;23.77;;;17.27;;
59854;SDS011;45732;52.850;6.896;2022-11-22T00:22:32;25.23;;;16.92;;
59854;SDS011;45732;52.850;6.896;2022-11-22T00:24:58;22.40;;;15.57;;
59854;SDS011;45732;52.850;6.896;2022-11-22T00:27:24;23.60;;;16.38;;
59854;SDS011;45732;52.850;6.896;2022-11-22T00:29:50;24.48;;;17.30;;
59854;SDS011;45732;52.850;6.896;2022-11-22T00:32:15;23.45;;;16.95;;
59854;SDS011;45732;52.850;6.896;2022-11-22T00:34:41;23.88;;;16.95;;
59854;SDS011;45732;52.850;6.896;2022-11-22T00:37:07;24.60;;;16.50;;
59854;SDS011;45732;52.850;6.896;2022-11-22T00:39:33;22.67;;;15.88;;
59854;SDS011;45732;52.850;6.896;2022-11-22T00:41:59;25.52;;;17.23;;
59854;SDS011;45732;52.850;6.896;2022-11-22T00:44:24;24.23;;;17.00;;
59854;SDS011;45732;52.850;6.896;2022-11-22T00:46:50;25.48;;;17.52;;
59854;SDS011;45732;52.850;6.896;2022-11-22T00:49:16;24.52;;;17.25;;
59854;SDS011;45732;52.850;6.896;2022-11-22T00:51:41;25.73;;;18.05;;
59854;SDS011;45732;52.850;6.896;2022-11-22T00:54:07;25.98;;;17.92;;
59854;SDS011;45732;52.850;6.896;2022-11-22T00:56:34;24.52;;;17.45;;
59854;SDS011;45732;52.850;6.896;2022-11-22T00:58:59;25.83;;;17.42;;
59854;SDS011;45732;52.850;6.896;2022-11-22T01:01:25;27.17;;;17.30;;
59854;SDS011;45732;52.850;6.896;2022-11-22T01:03:51;25.85;;;17.75;;
59854;SDS011;45732;52.850;6.896;2022-11-22T01:06:17;27.38;;;18.13;;
59854;SDS011;45732;52.850;6.896;2022-11-22T01:08:43;26.67;;;17.40;;
59854;SDS011;45732;52.850;6.896;2022-11-22T01:11:09;24.95;;;17.15;;
59854;SDS011;45732;52.850;6.896;2022-11-22T01:13:35;27.38;;;17.40;;
59854;SDS011;45732;52.850;6.896;2022-11-22T01:16:02;27.85;;;17.48;;
59854;SDS011;45732;52.850;6.896;2022-11-22T01:18:30;27.33;;;18.30;;
59854;SDS011;45732;52.850;6.896;2022-11-22T01:20:56;25.73;;;17.77;;
59854;SDS011;45732;52.850;6.896;2022-11-22T01:23:22;23.75;;;16.25;;
59854;SDS011;45732;52.850;6.896;2022-11-22T01:25:48;25.52;;;16.00;;
59854;SDS011;45732;52.850;6.896;2022-11-22T01:28:13;23.23;;;15.98;;
59854;SDS011;45732;52.850;6.896;2022-11-22T01:30:40;24.05;;;16.33;;
59854;SDS011;45732;52.850;6.896;2022-11-22T01:33:06;24.73;;;16.33;;
59854;SDS011;45732;52.850;6.896;2022-11-22T01:35:32;22.55;;;16.10;;
59854;SDS011;45732;52.850;6.896;2022-11-22T01:37:57;23.88;;;16.35;;
59854;SDS011;45732;52.850;6.896;2022-11-22T01:40:23;23.27;;;16.75;;
59854;SDS011;45732;52.850;6.896;2022-11-22T01:42:50;26.10;;;17.85;;
59854;SDS011;45732;52.850;6.896;2022-11-22T01:50:21;24.80;;;16.58;;
59854;SDS011;45732;52.850;6.896;2022-11-22T01:52:46;26.95;;;17.95;;
59854;SDS011;45732;52.850;6.896;2022-11-22T01:55:12;25.30;;;17.00;;
59854;SDS011;45732;52.850;6.896;2022-11-22T01:57:39;25.15;;;17.00;;
59854;SDS011;45732;52.850;6.896;2022-11-22T02:00:12;23.92;;;16.73;;
59854;SDS011;45732;52.850;6.896;2022-11-22T02:02:40;24.73;;;17.08;;
59854;SDS011;45732;52.850;6.896;2022-11-22T02:05:09;24.33;;;16.33;;
59854;SDS011;45732;52.850;6.896;2022-11-22T02:07:45;24.83;;;16.75;;
59854;SDS011;45732;52.850;6.896;2022-11-22T02:10:13;26.23;;;17.23;;
59854;SDS011;45732;52.850;6.896;2022-11-22T02:12:41;23.60;;;15.27;;
59854;SDS011;45732;52.850;6.896;2022-11-22T02:15:08;22.48;;;16.02;;
59854;SDS011;45732;52.850;6.896;2022-11-22T02:17:34;22.20;;;15.57;;
59854;SDS011;45732;52.850;6.896;2022-11-22T02:20:00;24.98;;;15.98;;
59854;SDS011;45732;52.850;6.896;2022-11-22T02:25:05;22.08;;;15.40;;
59854;SDS011;45732;52.850;6.896;2022-11-22T02:27:39;23.17;;;16.00;;
59854;SDS011;45732;52.850;6.896;2022-11-22T02:30:05;25.67;;;16.45;;
59854;SDS011;45732;52.850;6.896;2022-11-22T02:32:32;22.38;;;15.43;;
59854;SDS011;45732;52.850;6.896;2022-11-22T02:34:57;24.55;;;16.05;;
59854;SDS011;45732;52.850;6.896;2022-11-22T02:37:24;21.13;;;15.18;;
59854;SDS011;45732;52.850;6.896;2022-11-22T02:40:00;24.08;;;16.73;;
59854;SDS011;45732;52.850;6.896;2022-11-22T02:42:29;23.02;;;16.25;;
59854;SDS011;45732;52.850;6.896;2022-11-22T02:44:55;24.27;;;16.98;;
59854;SDS011;45732;52.850;6.896;2022-11-22T02:47:21;22.40;;;15.85;;
59854;SDS011;45732;52.850;6.896;2022-11-22T02:49:46;25.60;;;16.35;;
59854;SDS011;45732;52.850;6.896;2022-11-22T02:52:16;24.83;;;15.98;;
59854;SDS011;45732;52.850;6.896;2022-11-22T02:54:42;24.85;;;16.30;;
59854;SDS011;45732;52.850;6.896;2022-11-22T02:57:08;24.77;;;15.60;;
59854;SDS011;45732;52.850;6.896;2022-11-22T02:59:34;24.25;;;16.13;;
59854;SDS011;45732;52.850;6.896;2022-11-22T03:01:59;22.23;;;15.63;;
59854;SDS011;45732;52.850;6.896;2022-11-22T03:04:25;24.20;;;15.88;;
59854;SDS011;45732;52.850;6.896;2022-11-22T03:06:54;22.98;;;15.80;;
59854;SDS011;45732;52.850;6.896;2022-11-22T03:09:22;24.02;;;15.05;;
59854;SDS011;45732;52.850;6.896;2022-11-22T03:11:49;24.23;;;15.13;;
59854;SDS011;45732;52.850;6.896;2022-11-22T03:14:15;22.65;;;14.88;;
59854;SDS011;45732;52.850;6.896;2022-11-22T03:16:41;22.52;;;16.30;;
59854;SDS011;45732;52.850;6.896;2022-11-22T03:19:07;22.75;;;14.98;;
59854;SDS011;45732;52.850;6.896;2022-11-22T03:21:33;21.77;;;15.25;;
59854;SDS011;45732;52.850;6.896;2022-11-22T03:23:59;21.92;;;15.23;;
59854;SDS011;45732;52.850;6.896;2022-11-22T03:26:25;21.42;;;14.90;;
59854;SDS011;45732;52.850;6.896;2022-11-22T03:28:51;22.25;;;15.02;;
59854;SDS011;45732;52.850;6.896;2022-11-22T03:31:16;22.83;;;15.68;;
59854;SDS011;45732;52.850;6.896;2022-11-22T03:33:42;21.92;;;15.23;;
59854;SDS011;45732;52.850;6.896;2022-11-22T03:36:08;26.40;;;15.23;;
59854;SDS011;45732;52.850;6.896;2022-11-22T03:38:34;20.45;;;15.15;;
59854;SDS011;45732;52.850;6.896;2022-11-22T03:41:00;24.42;;;16.13;;
59854;SDS011;45732;52.850;6.896;2022-11-22T03:43:26;24.80;;;16.08;;
59854;SDS011;45732;52.850;6.896;2022-11-22T03:45:51;23.13;;;15.63;;
59854;SDS011;45732;52.850;6.896;2022-11-22T03:48:17;22.60;;;15.90;;
59854;SDS011;45732;52.850;6.896;2022-11-22T03:50:43;23.02;;;15.73;;
59854;SDS011;45732;52.850;6.896;2022-11-22T03:53:09;22.27;;;14.77;;
59854;SDS011;45732;52.850;6.896;2022-11-22T03:55:35;21.83;;;15.40;;
59854;SDS011;45732;52.850;6.896;2022-11-22T03:58:01;20.48;;;14.70;;
59854;SDS011;45732;52.850;6.896;2022-11-22T04:00:27;22.63;;;15.48;;
59854;SDS011;45732;52.850;6.896;2022-11-22T04:02:53;22.27;;;13.77;;
59854;SDS011;45732;52.850;6.896;2022-11-22T04:05:19;24.13;;;15.48;;
59854;SDS011;45732;52.850;6.896;2022-11-22T04:07:44;20.10;;;14.25;;
59854;SDS011;45732;52.850;6.896;2022-11-22T04:10:10;22.40;;;15.45;;
59854;SDS011;45732;52.850;6.896;2022-11-22T04:12:36;22.10;;;15.80;;
59854;SDS011;45732;52.850;6.896;2022-11-22T04:15:01;22.98;;;15.73;;
59854;SDS011;45732;52.850;6.896;2022-11-22T04:17:35;22.45;;;14.95;;
59854;SDS011;45732;52.850;6.896;2022-11-22T04:20:09;22.17;;;15.20;;
59854;SDS011;45732;52.850;6.896;2022-11-22T04:25:27;22.75;;;14.88;;
59854;SDS011;45732;52.850;6.896;2022-11-22T04:27:54;23.23;;;15.45;;
59854;SDS011;45732;52.850;6.896;2022-11-22T04:30:20;20.02;;;14.57;;
59854;SDS011;45732;52.850;6.896;2022-11-22T04:32:46;20.10;;;14.63;;
59854;SDS011;45732;52.850;6.896;2022-11-22T04:35:12;20.80;;;14.82;;
59854;SDS011;45732;52.850;6.896;2022-11-22T04:37:39;20.50;;;14.48;;
59854;SDS011;45732;52.850;6.896;2022-11-22T04:40:05;22.40;;;15.63;;
59854;SDS011;45732;52.850;6.896;2022-11-22T04:42:32;20.05;;;14.77;;
59854;SDS011;45732;52.850;6.896;2022-11-22T04:45:15;21.05;;;14.88;;
59854;SDS011;45732;52.850;6.896;2022-11-22T04:47:41;21.05;;;15.07;;
59854;SDS011;45732;52.850;6.896;2022-11-22T04:50:28;22.25;;;14.10;;
59854;SDS011;45732;52.850;6.896;2022-11-22T04:53:14;22.23;;;13.40;;
59854;SDS011;45732;52.850;6.896;2022-11-22T04:55:41;20.70;;;14.20;;
59854;SDS011;45732;52.850;6.896;2022-11-22T04:58:09;22.52;;;15.00;;
59854;SDS011;45732;52.850;6.896;2022-11-22T05:00:35;23.75;;;15.27;;
59854;SDS011;45732;52.850;6.896;2022-11-22T05:03:01;23.13;;;14.48;;
59854;SDS011;45732;52.850;6.896;2022-11-22T05:05:27;21.20;;;15.93;;
59854;SDS011;45732;52.850;6.896;2022-11-22T05:07:53;22.77;;;15.30;;
59854;SDS011;45732;52.850;6.896;2022-11-22T05:10:19;21.80;;;16.58;;
59854;SDS011;45732;52.850;6.896;2022-11-22T05:12:45;22.60;;;17.20;;
59854;SDS011;45732;52.850;6.896;2022-11-22T05:15:11;24.27;;;16.38;;
59854;SDS011;45732;52.850;6.896;2022-11-22T05:17:37;21.45;;;16.77;;
59854;SDS011;45732;52.850;6.896;2022-11-22T05:20:03;26.98;;;24.13;;
59854;SDS011;45732;52.850;6.896;2022-11-22T05:22:30;21.75;;;17.65;;
59854;SDS011;45732;52.850;6.896;2022-11-22T05:25:14;26.48;;;16.40;;
59854;SDS011;45732;52.850;6.896;2022-11-22T05:27:40;21.63;;;15.60;;
59854;SDS011;45732;52.850;6.896;2022-11-22T05:30:06;22.13;;;16.40;;
59854;SDS011;45732;52.850;6.896;2022-11-22T05:32:32;19.88;;;14.95;;
59854;SDS011;45732;52.850;6.896;2022-11-22T05:34:58;22.80;;;16.33;;
59854;SDS011;45732;52.850;6.896;2022-11-22T05:37:24;23.88;;;18.05;;
59854;SDS011;45732;52.850;6.896;2022-11-22T05:39:50;22.20;;;14.88;;
59854;SDS011;45732;52.850;6.896;2022-11-22T05:42:16;21.75;;;16.45;;
59854;SDS011;45732;52.850;6.896;2022-11-22T05:44:41;20.38;;;14.48;;
59854;SDS011;45732;52.850;6.896;2022-11-22T05:47:07;22.38;;;17.73;;
59854;SDS011;45732;52.850;6.896;2022-11-22T05:49:34;23.63;;;17.67;;
59854;SDS011;45732;52.850;6.896;2022-11-22T05:52:00;21.20;;;16.48;;
59854;SDS011;45732;52.850;6.896;2022-11-22T05:54:26;24.15;;;17.40;;
59854;SDS011;45732;52.850;6.896;2022-11-22T05:56:51;22.30;;;14.52;;
59854;SDS011;45732;52.850;6.896;2022-11-22T05:59:17;18.35;;;13.52;;
59854;SDS011;45732;52.850;6.896;2022-11-22T06:01:43;19.45;;;14.25;;
59854;SDS011;45732;52.850;6.896;2022-11-22T06:04:08;25.58;;;21.70;;
59854;SDS011;45732;52.850;6.896;2022-11-22T06:06:34;20.88;;;17.10;;
59854;SDS011;45732;52.850;6.896;2022-11-22T06:09:00;24.42;;;17.80;;
59854;SDS011;45732;52.850;6.896;2022-11-22T06:11:26;18.98;;;15.65;;
59854;SDS011;45732;52.850;6.896;2022-11-22T06:13:55;21.45;;;16.00;;
59854;SDS011;45732;52.850;6.896;2022-11-22T06:16:23;23.42;;;14.00;;
59854;SDS011;45732;52.850;6.896;2022-11-22T06:18:49;28.15;;;24.88;;
59854;SDS011;45732;52.850;6.896;2022-11-22T06:21:17;22.77;;;14.77;;
59854;SDS011;45732;52.850;6.896;2022-11-22T06:23:44;24.60;;;17.45;;
59854;SDS011;45732;52.850;6.896;2022-11-22T06:26:14;24.40;;;19.55;;
59854;SDS011;45732;52.850;6.896;2022-11-22T06:28:41;24.40;;;18.88;;
59854;SDS011;45732;52.850;6.896;2022-11-22T06:31:11;19.95;;;14.80;;
59854;SDS011;45732;52.850;6.896;2022-11-22T06:33:37;22.63;;;16.25;;
59854;SDS011;45732;52.850;6.896;2022-11-22T06:36:04;25.92;;;23.00;;
59854;SDS011;45732;52.850;6.896;2022-11-22T06:38:32;23.58;;;20.02;;
59854;SDS011;45732;52.850;6.896;2022-11-22T06:41:06;26.45;;;17.90;;
59854;SDS011;45732;52.850;6.896;2022-11-22T06:43:36;25.00;;;17.60;;
59854;SDS011;45732;52.850;6.896;2022-11-22T06:46:03;32.72;;;29.35;;
59854;SDS011;45732;52.850;6.896;2022-11-22T06:48:30;20.80;;;16.30;;
59854;SDS011;45732;52.850;6.896;2022-11-22T06:50:57;18.92;;;16.63;;
59854;SDS011;45732;52.850;6.896;2022-11-22T06:53:25;23.30;;;15.52;;
59854;SDS011;45732;52.850;6.896;2022-11-22T06:55:57;20.35;;;13.93;;
59854;SDS011;45732;52.850;6.896;2022-11-22T06:58:30;22.75;;;18.83;;
59854;SDS011;45732;52.850;6.896;2022-11-22T07:01:00;24.00;;;19.00;;
59854;SDS011;45732;52.850;6.896;2022-11-22T07:03:29;25.70;;;15.23;;
59854;SDS011;45732;52.850;6.896;2022-11-22T07:05:55;30.10;;;21.80;;
59854;SDS011;45732;52.850;6.896;2022-11-22T07:08:21;22.67;;;15.50;;
59854;SDS011;45732;52.850;6.896;2022-11-22T07:10:48;22.25;;;15.60;;
59854;SDS011;45732;52.850;6.896;2022-11-22T07:13:14;19.98;;;12.95;;
59854;SDS011;45732;52.850;6.896;2022-11-22T07:15:39;25.20;;;17.45;;
59854;SDS011;45732;52.850;6.896;2022-11-22T07:18:06;23.85;;;17.17;;
59854;SDS011;45732;52.850;6.896;2022-11-22T07:20:32;22.10;;;14.30;;
59854;SDS011;45732;52.850;6.896;2022-11-22T07:22:57;24.70;;;15.30;;
59854;SDS011;45732;52.850;6.896;2022-11-22T07:25:23;43.17;;;39.17;;
59854;SDS011;45732;52.850;6.896;2022-11-22T07:27:52;21.98;;;13.90;;
59854;SDS011;45732;52.850;6.896;2022-11-22T07:30:17;22.25;;;13.73;;
59854;SDS011;45732;52.850;6.896;2022-11-22T07:32:46;22.15;;;15.75;;
59854;SDS011;45732;52.850;6.896;2022-11-22T07:35:12;24.23;;;13.88;;
59854;SDS011;45732;52.850;6.896;2022-11-22T07:37:38;24.42;;;18.67;;
59854;SDS011;45732;52.850;6.896;2022-11-22T07:40:04;22.92;;;12.45;;
59854;SDS011;45732;52.850;6.896;2022-11-22T07:42:30;27.35;;;14.70;;
59854;SDS011;45732;52.850;6.896;2022-11-22T07:44:56;22.33;;;10.45;;
59854;SDS011;45732;52.850;6.896;2022-11-22T07:47:22;21.00;;;9.90;;
59854;SDS011;45732;52.850;6.896;2022-11-22T07:49:47;21.35;;;9.15;;
59854;SDS011;45732;52.850;6.896;2022-11-22T07:52:13;21.50;;;10.52;;
59854;SDS011;45732;52.850;6.896;2022-11-22T07:54:39;21.10;;;9.98;;
59854;SDS011;45732;52.850;6.896;2022-11-22T07:57:05;23.48;;;8.45;;
59854;SDS011;45732;52.850;6.896;2022-11-22T07:59:30;20.98;;;7.50;;
59854;SDS011;45732;52.850;6.896;2022-11-22T08:01:56;21.23;;;7.43;;
59854;SDS011;45732;52.850;6.896;2022-11-22T08:04:21;17.83;;;6.30;;
59854;SDS011;45732;52.850;6.896;2022-11-22T08:06:47;19.35;;;6.80;;
59854;SDS011;45732;52.850;6.896;2022-11-22T08:09:13;20.23;;;6.68;;
59854;SDS011;45732;52.850;6.896;2022-11-22T08:11:38;17.90;;;6.07;;
59854;SDS011;45732;52.850;6.896;2022-11-22T08:14:04;16.40;;;5.68;;
59854;SDS011;45732;52.850;6.896;2022-11-22T08:16:30;20.23;;;6.53;;
59854;SDS011;45732;52.850;6.896;2022-11-22T08:18:55;16.50;;;5.60;;
59854;SDS011;45732;52.850;6.896;2022-11-22T08:21:22;14.88;;;5.18;;
59854;SDS011;45732;52.850;6.896;2022-11-22T08:23:47;17.70;;;7.70;;
59854;SDS011;45732;52.850;6.896;2022-11-22T08:26:14;12.73;;;4.93;;
59854;SDS011;45732;52.850;6.896;2022-11-22T08:28:42;19.73;;;6.68;;
59854;SDS011;45732;52.850;6.896;2022-11-22T08:31:08;16.42;;;7.43;;
59854;SDS011;45732;52.850;6.896;2022-11-22T08:33:36;15.63;;;5.50;;
59854;SDS011;45732;52.850;6.896;2022-11-22T08:36:02;16.27;;;4.97;;
59854;SDS011;45732;52.850;6.896;2022-11-22T08:38:28;13.88;;;3.80;;
59854;SDS011;45732;52.850;6.896;2022-11-22T08:40:54;15.05;;;5.47;;
59854;SDS011;45732;52.850;6.896;2022-11-22T08:43:19;17.50;;;4.53;;
59854;SDS011;45732;52.850;6.896;2022-11-22T08:45:51;11.43;;;3.95;;
59854;SDS011;45732;52.850;6.896;2022-11-22T08:48:18;16.13;;;4.60;;
59854;SDS011;45732;52.850;6.896;2022-11-22T08:50:54;15.45;;;4.82;;
59854;SDS011;45732;52.850;6.896;2022-11-22T08:53:22;16.67;;;5.78;;
59854;SDS011;45732;52.850;6.896;2022-11-22T08:55:48;18.88;;;4.57;;
59854;SDS011;45732;52.850;6.896;2022-11-22T08:58:14;14.63;;;4.68;;
59854;SDS011;45732;52.850;6.896;2022-11-22T09:00:39;15.35;;;7.38;;
59854;SDS011;45732;52.850;6.896;2022-11-22T09:03:06;19.95;;;4.68;;
59854;SDS011;45732;52.850;6.896;2022-11-22T09:05:31;17.45;;;3.95;;
59854;SDS011;45732;52.850;6.896;2022-11-22T09:07:57;16.27;;;3.55;;
59854;SDS011;45732;52.850;6.896;2022-11-22T09:10:23;16.25;;;3.97;;
59854;SDS011;45732;52.850;6.896;2022-11-22T09:12:49;15.45;;;3.67;;
59854;SDS011;45732;52.850;6.896;2022-11-22T09:15:15;15.48;;;4.90;;
59854;SDS011;45732;52.850;6.896;2022-11-22T09:17:41;18.23;;;4.10;;
59854;SDS011;45732;52.850;6.896;2022-11-22T09:20:08;16.50;;;4.22;;
59854;SDS011;45732;52.850;6.896;2022-11-22T09:22:34;13.02;;;4.13;;
59854;SDS011;45732;52.850;6.896;2022-11-22T09:25:00;14.93;;;6.20;;
59854;SDS011;45732;52.850;6.896;2022-11-22T09:27:26;16.35;;;3.70;;
59854;SDS011;45732;52.850;6.896;2022-11-22T09:29:52;13.52;;;4.15;;
59854;SDS011;45732;52.850;6.896;2022-11-22T09:32:17;14.73;;;3.53;;
59854;SDS011;45732;52.850;6.896;2022-11-22T09:34:43;16.20;;;6.68;;
59854;SDS011;45732;52.850;6.896;2022-11-22T09:37:09;15.95;;;3.88;;
59854;SDS011;45732;52.850;6.896;2022-11-22T09:39:34;11.50;;;4.75;;
59854;SDS011;45732;52.850;6.896;2022-11-22T09:50:56;13.35;;;3.45;;
59854;SDS011;45732;52.850;6.896;2022-11-22T09:53:42;13.02;;;3.40;;
59854;SDS011;45732;52.850;6.896;2022-11-22T09:56:18;18.65;;;3.60;;
59854;SDS011;45732;52.850;6.896;2022-11-22T09:58:51;14.45;;;3.25;;
59854;SDS011;45732;52.850;6.896;2022-11-22T10:01:33;11.02;;;2.83;;
59854;SDS011;45732;52.850;6.896;2022-11-22T10:04:27;11.63;;;3.20;;
59854;SDS011;45732;52.850;6.896;2022-11-22T10:07:05;11.52;;;2.92;;
59854;SDS011;45732;52.850;6.896;2022-11-22T10:09:55;12.27;;;3.00;;
59854;SDS011;45732;52.850;6.896;2022-11-22T10:15:14;15.15;;;2.95;;
59854;SDS011;45732;52.850;6.896;2022-11-22T10:20:38;15.35;;;3.20;;
59854;SDS011;45732;52.850;6.896;2022-11-22T10:23:15;12.43;;;2.60;;
59854;SDS011;45732;52.850;6.896;2022-11-22T10:25:57;16.23;;;3.25;;
59854;SDS011;45732;52.850;6.896;2022-11-22T10:28:36;10.65;;;2.63;;
59854;SDS011;45732;52.850;6.896;2022-11-22T10:31:08;12.07;;;3.75;;
59854;SDS011;45732;52.850;6.896;2022-11-22T10:37:42;11.98;;;2.60;;
59854;SDS011;45732;52.850;6.896;2022-11-22T10:45:00;11.90;;;3.08;;
59854;SDS011;45732;52.850;6.896;2022-11-22T10:53:07;10.27;;;2.40;;
59854;SDS011;45732;52.850;6.896;2022-11-22T10:55:49;10.25;;;2.20;;
59854;SDS011;45732;52.850;6.896;2022-11-22T11:01:31;11.65;;;2.25;;
59854;SDS011;45732;52.850;6.896;2022-11-22T11:04:04;11.85;;;2.60;;
59854;SDS011;45732;52.850;6.896;2022-11-22T11:06:47;8.40;;;2.45;;
59854;SDS011;45732;52.850;6.896;2022-11-22T11:12:10;11.07;;;2.75;;
59854;SDS011;45732;52.850;6.896;2022-11-22T11:14:41;8.90;;;2.65;;
59854;SDS011;45732;52.850;6.896;2022-11-22T11:17:12;9.40;;;2.80;;
59854;SDS011;45732;52.850;6.896;2022-11-22T11:19:43;10.55;;;2.50;;
59854;SDS011;45732;52.850;6.896;2022-11-22T11:22:15;9.50;;;2.35;;
59854;SDS011;45732;52.850;6.896;2022-11-22T11:24:45;10.60;;;2.90;;
59854;SDS011;45732;52.850;6.896;2022-11-22T11:27:11;8.60;;;2.25;;
59854;SDS011;45732;52.850;6.896;2022-11-22T11:29:41;9.82;;;2.50;;
59854;SDS011;45732;52.850;6.896;2022-11-22T11:32:15;9.90;;;2.00;;
59854;SDS011;45732;52.850;6.896;2022-11-22T11:39:56;8.07;;;3.20;;
59854;SDS011;45732;52.850;6.896;2022-11-22T11:42:26;12.27;;;2.28;;
59854;SDS011;45732;52.850;6.896;2022-11-22T11:44:58;14.40;;;2.60;;
59854;SDS011;45732;52.850;6.896;2022-11-22T11:47:43;11.35;;;4.15;;
59854;SDS011;45732;52.850;6.896;2022-11-22T11:50:18;10.88;;;2.95;;
59854;SDS011;45732;52.850;6.896;2022-11-22T11:55:21;8.25;;;2.35;;
59854;SDS011;45732;52.850;6.896;2022-11-22T11:57:47;10.07;;;2.60;;
59854;SDS011;45732;52.850;6.896;2022-11-22T12:00:20;10.63;;;3.13;;
59854;SDS011;45732;52.850;6.896;2022-11-22T12:02:54;10.50;;;2.80;;
59854;SDS011;45732;52.850;6.896;2022-11-22T12:05:29;14.30;;;3.03;;
59854;SDS011;45732;52.850;6.896;2022-11-22T12:07:56;9.73;;;2.53;;
59854;SDS011;45732;52.850;6.896;2022-11-22T12:16:20;11.45;;;4.30;;
59854;SDS011;45732;52.850;6.896;2022-11-22T12:18:52;8.10;;;2.20;;
59854;SDS011;45732;52.850;6.896;2022-11-22T12:21:49;8.45;;;2.28;;
59854;SDS011;45732;52.850;6.896;2022-11-22T12:24:18;8.93;;;2.17;;
59854;SDS011;45732;52.850;6.896;2022-11-22T12:26:52;7.90;;;2.42;;
59854;SDS011;45732;52.850;6.896;2022-11-22T12:29:20;8.77;;;2.28;;
59854;SDS011;45732;52.850;6.896;2022-11-22T12:34:35;10.70;;;2.92;;
59854;SDS011;45732;52.850;6.896;2022-11-22T12:39:48;9.48;;;3.10;;
59854;SDS011;45732;52.850;6.896;2022-11-22T12:42:30;9.48;;;2.92;;
59854;SDS011;45732;52.850;6.896;2022-11-22T12:45:06;15.07;;;2.58;;
59854;SDS011;45732;52.850;6.896;2022-11-22T12:47:48;12.60;;;3.17;;
59854;SDS011;45732;52.850;6.896;2022-11-22T12:50:20;7.60;;;2.17;;
59854;SDS011;45732;52.850;6.896;2022-11-22T12:52:58;7.97;;;2.55;;
59854;SDS011;45732;52.850;6.896;2022-11-22T12:55:49;18.52;;;7.20;;
59854;SDS011;45732;52.850;6.896;2022-11-22T12:58:56;9.13;;;2.35;;
59854;SDS011;45732;52.850;6.896;2022-11-22T13:06:53;7.32;;;2.65;;
59854;SDS011;45732;52.850;6.896;2022-11-22T13:09:30;9.55;;;2.35;;
59854;SDS011;45732;52.850;6.896;2022-11-22T13:12:07;9.38;;;2.30;;
59854;SDS011;45732;52.850;6.896;2022-11-22T13:14:39;8.25;;;1.73;;
59854;SDS011;45732;52.850;6.896;2022-11-22T13:17:11;6.75;;;1.73;;
59854;SDS011;45732;52.850;6.896;2022-11-22T13:19:42;5.20;;;1.63;;
59854;SDS011;45732;52.850;6.896;2022-11-22T13:27:45;7.22;;;1.92;;
59854;SDS011;45732;52.850;6.896;2022-11-22T13:30:17;7.75;;;4.38;;
59854;SDS011;45732;52.850;6.896;2022-11-22T13:32:51;6.97;;;1.52;;
59854;SDS011;45732;52.850;6.896;2022-11-22T13:35:32;4.50;;;1.52;;
59854;SDS011;45732;52.850;6.896;2022-11-22T13:37:59;5.30;;;1.70;;
59854;SDS011;45732;52.850;6.896;2022-11-22T13:40:35;4.97;;;1.80;;
59854;SDS011;45732;52.850;6.896;2022-11-22T13:45:46;9.70;;;4.60;;
59854;SDS011;45732;52.850;6.896;2022-11-22T13:51:03;6.90;;;4.05;;
59854;SDS011;45732;52.850;6.896;2022-11-22T13:53:37;9.73;;;3.83;;
59854;SDS011;45732;52.850;6.896;2022-11-22T13:58:49;8.07;;;3.33;;
59854;SDS011;45732;52.850;6.896;2022-11-22T14:01:29;6.35;;;2.65;;
59854;SDS011;45732;52.850;6.896;2022-11-22T14:20:01;7.43;;;1.98;;
59854;SDS011;45732;52.850;6.896;2022-11-22T14:22:54;9.05;;;2.42;;
59854;SDS011;45732;52.850;6.896;2022-11-22T14:25:46;6.22;;;2.00;;
59854;SDS011;45732;52.850;6.896;2022-11-22T14:28:44;8.00;;;2.25;;
59854;SDS011;45732;52.850;6.896;2022-11-22T14:31:32;6.25;;;2.60;;
59854;SDS011;45732;52.850;6.896;2022-11-22T14:36:43;6.88;;;2.55;;
59854;SDS011;45732;52.850;6.896;2022-11-22T14:45:07;6.70;;;3.35;;
59854;SDS011;45732;52.850;6.896;2022-11-22T14:52:57;6.47;;;1.85;;
59854;SDS011;45732;52.850;6.896;2022-11-22T14:55:31;7.07;;;1.95;;
59854;SDS011;45732;52.850;6.896;2022-11-22T14:57:59;8.50;;;2.42;;
59854;SDS011;45732;52.850;6.896;2022-11-22T15:00:55;7.35;;;2.70;;
59854;SDS011;45732;52.850;6.896;2022-11-22T15:04:15;11.25;;;2.67;;
59854;SDS011;45732;52.850;6.896;2022-11-22T15:17:37;8.23;;;1.92;;
59854;SDS011;45732;52.850;6.896;2022-11-22T15:20:28;5.28;;;1.80;;
59854;SDS011;45732;52.850;6.896;2022-11-22T15:23:03;5.63;;;2.15;;
59854;SDS011;45732;52.850;6.896;2022-11-22T15:25:30;7.95;;;3.35;;
59854;SDS011;45732;52.850;6.896;2022-11-22T15:27:56;7.82;;;2.10;;
59854;SDS011;45732;52.850;6.896;2022-11-22T15:30:25;8.48;;;2.22;;
59854;SDS011;45732;52.850;6.896;2022-11-22T15:32:52;9.20;;;2.70;;
59854;SDS011;45732;52.850;6.896;2022-11-22T15:35:30;6.40;;;2.35;;
59854;SDS011;45732;52.850;6.896;2022-11-22T15:38:05;8.25;;;2.83;;
59854;SDS011;45732;52.850;6.896;2022-11-22T15:40:34;6.53;;;2.20;;
59854;SDS011;45732;52.850;6.896;2022-11-22T15:43:02;9.75;;;5.15;;
59854;SDS011;45732;52.850;6.896;2022-11-22T15:45:29;8.23;;;2.60;;
59854;SDS011;45732;52.850;6.896;2022-11-22T15:48:01;6.57;;;2.08;;
59854;SDS011;45732;52.850;6.896;2022-11-22T15:50:30;8.32;;;2.97;;
59854;SDS011;45732;52.850;6.896;2022-11-22T15:53:04;6.50;;;2.47;;
59854;SDS011;45732;52.850;6.896;2022-11-22T15:55:52;8.88;;;2.85;;
59854;SDS011;45732;52.850;6.896;2022-11-22T15:58:36;6.00;;;2.03;;
59854;SDS011;45732;52.850;6.896;2022-11-22T16:01:02;6.60;;;2.35;;
59854;SDS011;45732;52.850;6.896;2022-11-22T16:03:37;7.35;;;1.90;;
59854;SDS011;45732;52.850;6.896;2022-11-22T16:06:05;7.90;;;2.75;;
59854;SDS011;45732;52.850;6.896;2022-11-22T16:08:35;6.80;;;1.80;;
59854;SDS011;45732;52.850;6.896;2022-11-22T16:11:02;6.22;;;2.90;;
59854;SDS011;45732;52.850;6.896;2022-11-22T16:13:31;9.30;;;2.25;;
59854;SDS011;45732;52.850;6.896;2022-11-22T16:16:06;9.32;;;1.95;;
59854;SDS011;45732;52.850;6.896;2022-11-22T16:18:43;11.35;;;4.65;;
59854;SDS011;45732;52.850;6.896;2022-11-22T16:23:36;8.60;;;2.65;;
59854;SDS011;45732;52.850;6.896;2022-11-22T16:26:16;7.15;;;2.63;;
59854;SDS011;45732;52.850;6.896;2022-11-22T16:28:50;6.47;;;1.95;;
59854;SDS011;45732;52.850;6.896;2022-11-22T16:31:27;8.52;;;2.63;;
59854;SDS011;45732;52.850;6.896;2022-11-22T16:33:56;10.52;;;3.47;;
59854;SDS011;45732;52.850;6.896;2022-11-22T16:36:23;5.85;;;2.30;;
59854;SDS011;45732;52.850;6.896;2022-11-22T16:38:52;5.53;;;2.70;;
59854;SDS011;45732;52.850;6.896;2022-11-22T16:41:21;6.28;;;2.10;;
59854;SDS011;45732;52.850;6.896;2022-11-22T16:43:50;6.65;;;1.52;;
59854;SDS011;45732;52.850;6.896;2022-11-22T16:46:19;6.88;;;2.10;;
59854;SDS011;45732;52.850;6.896;2022-11-22T16:48:44;8.23;;;2.83;;
59854;SDS011;45732;52.850;6.896;2022-11-22T16:51:28;8.23;;;2.80;;